createdAt,value
2022-10-01T00:02:57.241Z,13.70
2022-10-01T00:08:02.831Z,13.67
2022-10-01T00:13:08.212Z,13.68
2022-10-01T00:18:14.082Z,13.67
2022-10-01T00:23:20.017Z,13.65
2022-10-01T00:28:26.403Z,13.61
2022-10-01T00:33:32.265Z,13.59
2022-10-01T00:38:41.804Z,13.57
2022-10-01T00:43:50.366Z,13.54
2022-10-01T00:49:13.687Z,13.51
2022-10-01T00:54:22.486Z,13.48
2022-10-01T00:59:29.486Z,13.48
2022-10-01T01:04:35.138Z,13.46
2022-10-01T01:09:43.580Z,13.45
2022-10-01T01:15:19.419Z,13.43
2022-10-01T01:20:53.457Z,13.40
2022-10-01T01:26:24.639Z,13.36
2022-10-01T01:31:33.985Z,13.32
2022-10-01T01:36:43.365Z,13.31
2022-10-01T01:41:51.855Z,13.35
2022-10-01T01:46:58.377Z,13.31
2022-10-01T01:52:16.162Z,13.30
2022-10-01T01:57:22.267Z,13.30
2022-10-01T02:02:32.814Z,13.34
2022-10-01T02:07:55.409Z,13.33
2022-10-01T02:13:24.260Z,13.31
2022-10-01T02:18:32.818Z,13.30
2022-10-01T02:23:41.327Z,13.29
2022-10-01T02:28:49.053Z,13.31
2022-10-01T02:33:56.816Z,13.32
2022-10-01T02:39:05.453Z,13.32
2022-10-01T02:44:13.867Z,13.35
2022-10-01T02:49:20.233Z,13.36
2022-10-01T02:54:37.464Z,13.40
2022-10-01T02:59:43.071Z,13.40
2022-10-01T03:04:51.465Z,13.39
2022-10-01T03:09:57.205Z,13.39
2022-10-01T03:15:02.870Z,13.40
2022-10-01T03:20:09.549Z,13.39
2022-10-01T03:25:16.339Z,13.38
2022-10-01T03:30:22.368Z,13.38
2022-10-01T03:35:27.894Z,13.36
2022-10-01T03:40:34.937Z,13.34
2022-10-01T03:45:41.129Z,13.30
2022-10-01T03:50:55.433Z,13.29
2022-10-01T03:56:01.754Z,13.27
2022-10-01T04:01:07.204Z,13.25
2022-10-01T04:06:13.360Z,13.25
2022-10-01T04:11:18.759Z,13.21
2022-10-01T04:16:25.011Z,13.22
2022-10-01T04:21:30.613Z,13.12
2022-10-01T04:26:36.504Z,13.11
2022-10-01T04:31:42.027Z,13.11
2022-10-01T04:36:47.719Z,13.11
2022-10-01T04:41:53.111Z,13.11
2022-10-01T04:46:58.564Z,13.11
2022-10-01T04:52:04.979Z,13.11
2022-10-01T04:57:10.361Z,13.07
2022-10-01T05:02:16.285Z,13.06
2022-10-01T05:07:22.402Z,13.01
2022-10-01T05:12:28.914Z,12.99
2022-10-01T05:17:34.667Z,12.93
2022-10-01T05:22:40.059Z,12.94
2022-10-01T05:27:46.159Z,12.97
2022-10-01T05:33:00.163Z,13.00
2022-10-01T05:38:05.559Z,12.97
2022-10-01T05:43:11.265Z,13.00
2022-10-01T05:48:16.659Z,13.04
2022-10-01T05:53:23.594Z,13.06
2022-10-01T05:58:29.487Z,13.10
2022-10-01T06:03:36.106Z,13.11
2022-10-01T06:08:41.563Z,13.15
2022-10-01T06:13:47.295Z,13.22
2022-10-01T06:18:54.318Z,13.38
2022-10-01T06:24:00.070Z,13.39
2022-10-01T06:29:05.454Z,13.37
2022-10-01T06:34:13.231Z,13.36
2022-10-01T06:39:18.626Z,13.43
2022-10-01T06:44:24.027Z,13.50
2022-10-01T06:49:29.418Z,13.56
2022-10-01T06:54:34.807Z,13.66
2022-10-01T06:59:40.193Z,13.75
2022-10-01T07:04:48.805Z,13.77
2022-10-01T07:09:54.284Z,13.82
2022-10-01T07:14:59.673Z,13.86
2022-10-01T07:20:05.979Z,13.93
2022-10-01T07:25:11.799Z,14.03
2022-10-01T07:30:17.342Z,14.02
2022-10-01T07:35:23.376Z,14.14
2022-10-01T07:40:28.784Z,14.26
2022-10-01T07:45:34.459Z,14.39
2022-10-01T07:50:39.968Z,14.45
2022-10-01T07:55:45.541Z,14.47
2022-10-01T08:00:52.852Z,14.55
2022-10-01T08:05:58.268Z,14.70
2022-10-01T08:11:04.200Z,14.72
2022-10-01T08:16:11.453Z,14.76
2022-10-01T08:21:16.881Z,14.79
2022-10-01T08:26:22.347Z,14.95
2022-10-01T08:31:28.399Z,15.06
2022-10-01T08:36:35.492Z,15.08
2022-10-01T08:41:56.222Z,15.13
2022-10-01T08:47:04.734Z,15.16
2022-10-01T08:52:31.101Z,15.25
2022-10-01T08:57:39.614Z,15.38
2022-10-01T09:02:46.990Z,15.30
2022-10-01T09:07:58.273Z,15.44
2022-10-01T09:13:18.916Z,15.53
2022-10-01T09:18:33.182Z,15.52
2022-10-01T09:23:41.691Z,15.58
2022-10-01T09:28:50.141Z,15.61
2022-10-01T09:34:15.883Z,15.66
2022-10-01T09:39:27.316Z,15.71
2022-10-01T09:44:35.042Z,15.75
2022-10-01T09:49:44.071Z,15.85
2022-10-01T09:54:55.000Z,15.85
2022-10-01T10:00:24.709Z,15.96
2022-10-01T10:05:33.325Z,16.01
2022-10-01T10:10:41.156Z,16.03
2022-10-01T10:15:58.314Z,16.04
2022-10-01T10:21:08.078Z,16.08
2022-10-01T10:26:16.601Z,16.18
2022-10-01T10:31:25.367Z,16.32
2022-10-01T10:36:34.092Z,16.56
2022-10-01T10:41:44.349Z,16.73
2022-10-01T10:46:51.186Z,16.90
2022-10-01T10:51:58.709Z,17.13
2022-10-01T10:57:08.318Z,17.11
2022-10-01T11:02:16.815Z,17.25
2022-10-01T11:07:25.589Z,17.23
2022-10-01T11:12:47.497Z,17.25
2022-10-01T11:18:02.456Z,17.36
2022-10-01T11:23:26.949Z,17.38
2022-10-01T11:28:50.195Z,17.38
2022-10-01T11:34:21.018Z,17.50
2022-10-01T11:39:29.741Z,17.36
2022-10-01T11:45:01.046Z,17.18
2022-10-01T11:50:18.786Z,17.27
2022-10-01T11:55:54.172Z,17.18
2022-10-01T12:01:08.592Z,17.09
2022-10-01T12:06:16.780Z,16.99
2022-10-01T12:11:31.270Z,16.93
2022-10-01T12:16:57.844Z,17.08
2022-10-01T12:22:09.391Z,17.14
2022-10-01T12:27:29.765Z,17.20
2022-10-01T12:32:38.198Z,17.18
2022-10-01T12:37:49.472Z,16.92
2022-10-01T12:43:22.218Z,16.73
2022-10-01T12:48:52.777Z,16.55
2022-10-01T12:54:35.161Z,16.26
2022-10-01T12:59:50.385Z,16.14
2022-10-01T13:05:05.277Z,16.04
2022-10-01T13:10:16.532Z,16.07
2022-10-01T13:15:31.913Z,15.92
2022-10-01T13:20:43.512Z,15.84
2022-10-01T13:26:06.254Z,15.74
2022-10-01T13:31:18.979Z,15.77
2022-10-01T13:36:36.735Z,15.64
2022-10-01T13:41:43.341Z,15.56
2022-10-01T13:46:54.434Z,15.38
2022-10-01T13:52:02.319Z,15.26
2022-10-01T13:57:13.314Z,15.21
2022-10-01T14:02:37.093Z,15.21
2022-10-01T14:07:45.762Z,15.16
2022-10-01T14:13:10.581Z,15.08
2022-10-01T14:18:21.922Z,15.10
2022-10-01T14:23:48.745Z,15.00
2022-10-01T14:29:01.014Z,14.97
2022-10-01T14:34:21.071Z,14.93
2022-10-01T14:39:28.725Z,14.81
2022-10-01T14:44:45.843Z,14.72
2022-10-01T14:49:52.368Z,14.75
2022-10-01T14:55:03.884Z,14.62
2022-10-01T15:00:12.608Z,14.61
2022-10-01T15:05:37.480Z,14.62
2022-10-01T15:10:48.427Z,14.59
2022-10-01T15:15:55.808Z,14.53
2022-10-01T15:21:09.095Z,14.54
2022-10-01T15:26:17.267Z,14.58
2022-10-01T15:31:23.521Z,14.51
2022-10-01T15:36:29.969Z,14.45
2022-10-01T15:41:36.828Z,14.45
2022-10-01T15:46:42.944Z,14.39
2022-10-01T15:52:15.262Z,14.32
2022-10-01T15:57:25.917Z,14.32
2022-10-01T16:02:33.422Z,14.27
2022-10-01T16:07:40.498Z,14.25
2022-10-01T16:12:46.214Z,14.25
2022-10-01T16:17:57.368Z,14.20
2022-10-01T16:23:28.177Z,15.11
2022-10-01T16:28:37.619Z,14.46
2022-10-01T16:33:42.999Z,14.26
2022-10-01T16:38:49.314Z,14.17
2022-10-01T16:43:57.101Z,14.11
2022-10-01T16:49:02.771Z,14.10
2022-10-01T16:54:20.103Z,14.09
2022-10-01T16:59:25.650Z,14.03
2022-10-01T17:04:34.109Z,14.00
2022-10-01T17:09:39.726Z,13.98
2022-10-01T17:14:45.126Z,13.99
2022-10-01T17:19:50.536Z,13.97
2022-10-01T17:24:55.939Z,13.89
2022-10-01T17:30:01.403Z,13.81
2022-10-01T17:35:07.834Z,13.75
2022-10-01T17:40:13.295Z,13.65
2022-10-01T17:45:18.834Z,13.60
2022-10-01T17:50:24.470Z,13.56
2022-10-01T17:55:30.109Z,13.58
2022-10-01T18:00:38.314Z,13.61
2022-10-01T18:05:43.722Z,13.56
2022-10-01T18:10:49.101Z,13.54
2022-10-01T18:16:03.758Z,13.55
2022-10-01T18:21:15.365Z,13.52
2022-10-01T18:26:20.761Z,13.45
2022-10-01T18:31:28.312Z,13.47
2022-10-01T18:36:53.294Z,13.49
2022-10-01T18:41:59.287Z,13.51
2022-10-01T18:47:25.999Z,13.54
2022-10-01T18:52:53.852Z,13.56
2022-10-01T18:58:19.450Z,13.59
2022-10-01T19:03:30.422Z,13.65
2022-10-01T19:08:57.167Z,13.65
2022-10-01T19:14:08.655Z,13.64
2022-10-01T19:19:52.790Z,13.65
2022-10-01T19:25:22.562Z,13.63
2022-10-01T19:30:33.877Z,13.64
2022-10-01T19:35:51.341Z,13.63
2022-10-01T19:40:59.931Z,13.64
2022-10-01T19:46:20.813Z,13.65
2022-10-01T19:51:38.855Z,13.66
2022-10-01T19:56:46.813Z,13.66
2022-10-01T20:02:03.709Z,13.68
2022-10-01T20:07:12.217Z,13.62
2022-10-01T20:12:29.554Z,13.58
2022-10-01T20:17:55.353Z,13.61
2022-10-01T20:23:12.746Z,13.61
2022-10-01T20:28:38.089Z,13.60
2022-10-01T20:33:59.220Z,13.57
2022-10-01T20:39:08.046Z,13.56
2022-10-01T20:44:16.531Z,13.55
2022-10-01T20:49:33.917Z,13.58
2022-10-01T20:54:42.348Z,13.54
2022-10-01T20:59:53.615Z,13.53
2022-10-01T21:05:08.139Z,13.53
2022-10-01T21:10:53.792Z,13.51
2022-10-01T21:16:20.441Z,13.54
2022-10-01T21:21:57.775Z,13.48
2022-10-01T21:27:34.840Z,13.49
2022-10-01T21:32:58.816Z,13.50
2022-10-01T21:38:28.565Z,13.49
2022-10-01T21:43:46.112Z,13.57
2022-10-01T21:48:54.534Z,13.54
2022-10-01T21:54:02.971Z,13.58
2022-10-01T21:59:29.536Z,13.60
2022-10-01T22:04:46.740Z,13.61
2022-10-01T22:09:55.512Z,13.63
2022-10-01T22:15:02.241Z,13.68
2022-10-01T22:20:08.901Z,13.72
2022-10-01T22:25:15.313Z,13.78
2022-10-01T22:30:23.921Z,13.78
2022-10-01T22:35:53.570Z,13.82
2022-10-01T22:41:27.512Z,13.76
2022-10-01T22:46:50.888Z,13.73
2022-10-01T22:52:02.341Z,13.75
2022-10-01T22:57:25.761Z,13.79
2022-10-01T23:02:50.724Z,13.81
2022-10-01T23:08:04.693Z,13.84
2022-10-01T23:13:27.924Z,13.81
2022-10-01T23:18:45.257Z,13.74
2022-10-01T23:23:56.442Z,13.69
2022-10-01T23:29:10.504Z,13.68
2022-10-01T23:34:49.377Z,13.58
2022-10-01T23:40:04.154Z,13.55
2022-10-01T23:45:27.843Z,13.47
2022-10-01T23:50:44.692Z,13.39
2022-10-01T23:56:13.551Z,13.39
